sensor_id;sensor_type;location;lat;lon;timestamp;P1;durP1;ratioP1;P2;durP2;ratioP2
20814;SDS011;10568;48.176;16.316;2023-11-21T00:00:22;0.87;;;0.67;;
20814;SDS011;10568;48.176;16.316;2023-11-21T00:02:47;2.97;;;0.90;;
20814;SDS011;10568;48.176;16.316;2023-11-21T00:05:13;1.57;;;0.73;;
20814;SDS011;10568;48.176;16.316;2023-11-21T00:07:40;1.67;;;0.63;;
20814;SDS011;10568;48.176;16.316;2023-11-21T00:10:07;1.13;;;0.60;;
20814;SDS011;10568;48.176;16.316;2023-11-21T00:12:37;1.60;;;0.80;;
20814;SDS011;10568;48.176;16.316;2023-11-21T00:15:03;1.33;;;0.73;;
20814;SDS011;10568;48.176;16.316;2023-11-21T00:17:38;1.70;;;0.70;;
20814;SDS011;10568;48.176;16.316;2023-11-21T00:20:08;2.20;;;0.73;;
20814;SDS011;10568;48.176;16.316;2023-11-21T00:22:37;3.07;;;0.73;;
20814;SDS011;10568;48.176;16.316;2023-11-21T00:25:03;1.77;;;1.10;;
20814;SDS011;10568;48.176;16.316;2023-11-21T00:27:29;2.67;;;0.87;;
20814;SDS011;10568;48.176;16.316;2023-11-21T00:29:55;2.03;;;0.93;;
20814;SDS011;10568;48.176;16.316;2023-11-21T00:32:21;1.00;;;0.80;;
20814;SDS011;10568;48.176;16.316;2023-11-21T00:34:47;1.83;;;0.80;;
20814;SDS011;10568;48.176;16.316;2023-11-21T00:37:13;2.57;;;0.90;;
20814;SDS011;10568;48.176;16.316;2023-11-21T00:39:39;3.67;;;0.90;;
20814;SDS011;10568;48.176;16.316;2023-11-21T00:42:05;2.60;;;1.00;;
20814;SDS011;10568;48.176;16.316;2023-11-21T00:44:31;2.80;;;1.20;;
20814;SDS011;10568;48.176;16.316;2023-11-21T00:46:59;1.33;;;0.80;;
20814;SDS011;10568;48.176;16.316;2023-11-21T00:49:25;2.30;;;1.20;;
20814;SDS011;10568;48.176;16.316;2023-11-21T00:51:51;1.43;;;0.97;;
20814;SDS011;10568;48.176;16.316;2023-11-21T00:54:17;2.30;;;1.23;;
20814;SDS011;10568;48.176;16.316;2023-11-21T00:56:43;2.93;;;1.00;;
20814;SDS011;10568;48.176;16.316;2023-11-21T00:59:08;0.90;;;0.80;;
20814;SDS011;10568;48.176;16.316;2023-11-21T01:01:35;1.10;;;1.00;;
20814;SDS011;10568;48.176;16.316;2023-11-21T01:04:02;1.60;;;0.87;;
20814;SDS011;10568;48.176;16.316;2023-11-21T01:06:28;4.97;;;1.00;;
20814;SDS011;10568;48.176;16.316;2023-11-21T01:08:55;3.57;;;0.90;;
20814;SDS011;10568;48.176;16.316;2023-11-21T01:11:20;3.00;;;1.10;;
20814;SDS011;10568;48.176;16.316;2023-11-21T01:13:46;3.63;;;1.07;;
20814;SDS011;10568;48.176;16.316;2023-11-21T01:16:12;1.53;;;0.80;;
20814;SDS011;10568;48.176;16.316;2023-11-21T01:18:38;1.80;;;1.03;;
20814;SDS011;10568;48.176;16.316;2023-11-21T01:21:04;1.97;;;1.20;;
20814;SDS011;10568;48.176;16.316;2023-11-21T01:23:30;1.43;;;0.93;;
20814;SDS011;10568;48.176;16.316;2023-11-21T01:25:56;2.93;;;0.80;;
20814;SDS011;10568;48.176;16.316;2023-11-21T01:28:22;0.60;;;0.50;;
20814;SDS011;10568;48.176;16.316;2023-11-21T01:30:48;1.90;;;0.90;;
20814;SDS011;10568;48.176;16.316;2023-11-21T01:33:14;0.90;;;0.83;;
20814;SDS011;10568;48.176;16.316;2023-11-21T01:35:41;1.57;;;1.03;;
20814;SDS011;10568;48.176;16.316;2023-11-21T01:38:07;1.47;;;1.00;;
20814;SDS011;10568;48.176;16.316;2023-11-21T01:40:33;2.83;;;1.03;;
20814;SDS011;10568;48.176;16.316;2023-11-21T01:43:00;1.37;;;0.93;;
20814;SDS011;10568;48.176;16.316;2023-11-21T01:45:28;1.77;;;1.00;;
20814;SDS011;10568;48.176;16.316;2023-11-21T01:47:56;1.00;;;0.73;;
20814;SDS011;10568;48.176;16.316;2023-11-21T01:50:25;3.10;;;1.23;;
20814;SDS011;10568;48.176;16.316;2023-11-21T01:52:52;3.97;;;1.37;;
20814;SDS011;10568;48.176;16.316;2023-11-21T01:55:18;3.03;;;0.93;;
20814;SDS011;10568;48.176;16.316;2023-11-21T01:57:45;2.33;;;0.97;;
20814;SDS011;10568;48.176;16.316;2023-11-21T02:00:11;1.60;;;0.90;;
20814;SDS011;10568;48.176;16.316;2023-11-21T02:02:43;3.07;;;1.00;;
20814;SDS011;10568;48.176;16.316;2023-11-21T02:05:10;4.40;;;1.30;;
20814;SDS011;10568;48.176;16.316;2023-11-21T02:07:40;3.30;;;0.93;;
20814;SDS011;10568;48.176;16.316;2023-11-21T02:10:08;1.30;;;0.90;;
20814;SDS011;10568;48.176;16.316;2023-11-21T02:12:35;2.47;;;1.00;;
20814;SDS011;10568;48.176;16.316;2023-11-21T02:15:04;4.17;;;1.40;;
20814;SDS011;10568;48.176;16.316;2023-11-21T02:17:35;3.40;;;1.30;;
20814;SDS011;10568;48.176;16.316;2023-11-21T02:20:01;2.43;;;1.20;;
20814;SDS011;10568;48.176;16.316;2023-11-21T02:22:29;3.07;;;1.10;;
20814;SDS011;10568;48.176;16.316;2023-11-21T02:25:00;3.33;;;1.17;;
20814;SDS011;10568;48.176;16.316;2023-11-21T02:27:27;3.00;;;1.33;;
20814;SDS011;10568;48.176;16.316;2023-11-21T02:29:53;5.30;;;1.50;;
20814;SDS011;10568;48.176;16.316;2023-11-21T02:32:19;2.40;;;1.10;;
20814;SDS011;10568;48.176;16.316;2023-11-21T02:34:48;3.37;;;1.33;;
20814;SDS011;10568;48.176;16.316;2023-11-21T02:37:15;2.10;;;1.40;;
20814;SDS011;10568;48.176;16.316;2023-11-21T02:39:40;6.80;;;1.00;;
20814;SDS011;10568;48.176;16.316;2023-11-21T02:42:06;3.43;;;1.00;;
20814;SDS011;10568;48.176;16.316;2023-11-21T02:44:32;2.80;;;1.20;;
20814;SDS011;10568;48.176;16.316;2023-11-21T02:46:58;1.20;;;0.90;;
20814;SDS011;10568;48.176;16.316;2023-11-21T02:49:25;1.70;;;1.10;;
20814;SDS011;10568;48.176;16.316;2023-11-21T02:51:53;3.73;;;1.00;;
20814;SDS011;10568;48.176;16.316;2023-11-21T02:54:22;3.53;;;1.33;;
20814;SDS011;10568;48.176;16.316;2023-11-21T02:56:48;3.67;;;1.33;;
20814;SDS011;10568;48.176;16.316;2023-11-21T02:59:15;1.50;;;0.90;;
20814;SDS011;10568;48.176;16.316;2023-11-21T03:01:41;1.80;;;1.03;;
20814;SDS011;10568;48.176;16.316;2023-11-21T03:04:07;3.30;;;1.13;;
20814;SDS011;10568;48.176;16.316;2023-11-21T03:06:33;4.80;;;1.13;;
20814;SDS011;10568;48.176;16.316;2023-11-21T03:08:59;3.80;;;1.20;;
20814;SDS011;10568;48.176;16.316;2023-11-21T03:11:25;2.43;;;1.00;;
20814;SDS011;10568;48.176;16.316;2023-11-21T03:13:51;1.30;;;0.90;;
20814;SDS011;10568;48.176;16.316;2023-11-21T03:16:16;1.73;;;1.30;;
20814;SDS011;10568;48.176;16.316;2023-11-21T03:18:44;3.10;;;1.07;;
20814;SDS011;10568;48.176;16.316;2023-11-21T03:21:10;2.90;;;0.80;;
20814;SDS011;10568;48.176;16.316;2023-11-21T03:23:37;3.63;;;1.23;;
20814;SDS011;10568;48.176;16.316;2023-11-21T03:26:03;2.40;;;1.00;;
20814;SDS011;10568;48.176;16.316;2023-11-21T03:28:29;5.07;;;1.03;;
20814;SDS011;10568;48.176;16.316;2023-11-21T03:30:55;4.50;;;1.13;;
20814;SDS011;10568;48.176;16.316;2023-11-21T03:33:21;3.07;;;1.07;;
20814;SDS011;10568;48.176;16.316;2023-11-21T03:35:47;2.23;;;0.97;;
20814;SDS011;10568;48.176;16.316;2023-11-21T03:38:14;5.50;;;1.27;;
20814;SDS011;10568;48.176;16.316;2023-11-21T03:40:41;1.50;;;0.70;;
20814;SDS011;10568;48.176;16.316;2023-11-21T03:43:07;4.43;;;1.30;;
20814;SDS011;10568;48.176;16.316;2023-11-21T03:45:33;1.83;;;1.10;;
20814;SDS011;10568;48.176;16.316;2023-11-21T03:47:58;2.70;;;1.20;;
20814;SDS011;10568;48.176;16.316;2023-11-21T03:50:27;3.17;;;1.30;;
20814;SDS011;10568;48.176;16.316;2023-11-21T03:52:56;3.87;;;1.00;;
20814;SDS011;10568;48.176;16.316;2023-11-21T03:55:22;4.23;;;1.20;;
20814;SDS011;10568;48.176;16.316;2023-11-21T03:57:51;2.60;;;0.90;;
20814;SDS011;10568;48.176;16.316;2023-11-21T04:00:17;2.63;;;1.10;;
20814;SDS011;10568;48.176;16.316;2023-11-21T04:02:45;1.73;;;1.00;;
20814;SDS011;10568;48.176;16.316;2023-11-21T04:05:11;1.37;;;0.70;;
20814;SDS011;10568;48.176;16.316;2023-11-21T04:07:37;0.70;;;0.70;;
20814;SDS011;10568;48.176;16.316;2023-11-21T04:10:04;2.07;;;0.93;;
20814;SDS011;10568;48.176;16.316;2023-11-21T04:12:33;2.87;;;0.97;;
20814;SDS011;10568;48.176;16.316;2023-11-21T04:15:03;1.33;;;1.00;;
20814;SDS011;10568;48.176;16.316;2023-11-21T04:17:29;2.40;;;1.20;;
20814;SDS011;10568;48.176;16.316;2023-11-21T04:19:54;2.30;;;1.10;;
20814;SDS011;10568;48.176;16.316;2023-11-21T04:22:20;4.00;;;1.47;;
20814;SDS011;10568;48.176;16.316;2023-11-21T04:24:46;1.63;;;0.67;;
20814;SDS011;10568;48.176;16.316;2023-11-21T04:27:12;2.90;;;1.07;;
20814;SDS011;10568;48.176;16.316;2023-11-21T04:29:39;1.80;;;0.90;;
20814;SDS011;10568;48.176;16.316;2023-11-21T04:32:06;2.07;;;0.83;;
20814;SDS011;10568;48.176;16.316;2023-11-21T04:34:33;2.70;;;0.90;;
20814;SDS011;10568;48.176;16.316;2023-11-21T04:36:59;3.17;;;1.10;;
20814;SDS011;10568;48.176;16.316;2023-11-21T04:39:25;4.07;;;1.00;;
20814;SDS011;10568;48.176;16.316;2023-11-21T04:41:51;2.03;;;0.83;;
20814;SDS011;10568;48.176;16.316;2023-11-21T04:44:17;2.20;;;0.90;;
20814;SDS011;10568;48.176;16.316;2023-11-21T04:46:43;4.73;;;0.90;;
20814;SDS011;10568;48.176;16.316;2023-11-21T04:49:09;4.83;;;1.47;;
20814;SDS011;10568;48.176;16.316;2023-11-21T04:51:36;0.97;;;0.80;;
20814;SDS011;10568;48.176;16.316;2023-11-21T04:54:01;2.83;;;1.00;;
20814;SDS011;10568;48.176;16.316;2023-11-21T04:56:27;2.27;;;0.90;;
20814;SDS011;10568;48.176;16.316;2023-11-21T04:58:54;2.60;;;0.80;;
20814;SDS011;10568;48.176;16.316;2023-11-21T05:01:19;2.37;;;0.80;;
20814;SDS011;10568;48.176;16.316;2023-11-21T05:03:46;5.63;;;1.20;;
20814;SDS011;10568;48.176;16.316;2023-11-21T05:06:12;1.30;;;0.83;;
20814;SDS011;10568;48.176;16.316;2023-11-21T05:08:42;2.80;;;1.00;;
20814;SDS011;10568;48.176;16.316;2023-11-21T05:11:08;1.87;;;1.00;;
20814;SDS011;10568;48.176;16.316;2023-11-21T05:13:35;2.93;;;1.10;;
20814;SDS011;10568;48.176;16.316;2023-11-21T05:16:02;4.23;;;1.37;;
20814;SDS011;10568;48.176;16.316;2023-11-21T05:18:32;2.20;;;1.33;;
20814;SDS011;10568;48.176;16.316;2023-11-21T05:20:59;2.53;;;0.73;;
20814;SDS011;10568;48.176;16.316;2023-11-21T05:23:26;2.67;;;1.10;;
20814;SDS011;10568;48.176;16.316;2023-11-21T05:25:52;2.20;;;0.87;;
20814;SDS011;10568;48.176;16.316;2023-11-21T05:28:18;4.10;;;1.30;;
20814;SDS011;10568;48.176;16.316;2023-11-21T05:30:43;2.93;;;1.20;;
20814;SDS011;10568;48.176;16.316;2023-11-21T05:33:09;2.30;;;1.00;;
20814;SDS011;10568;48.176;16.316;2023-11-21T05:35:35;4.63;;;1.13;;
20814;SDS011;10568;48.176;16.316;2023-11-21T05:38:01;2.10;;;1.10;;
20814;SDS011;10568;48.176;16.316;2023-11-21T05:40:27;3.43;;;1.10;;
20814;SDS011;10568;48.176;16.316;2023-11-21T05:42:54;4.80;;;1.37;;
20814;SDS011;10568;48.176;16.316;2023-11-21T05:45:21;1.67;;;0.80;;
20814;SDS011;10568;48.176;16.316;2023-11-21T05:47:47;2.27;;;1.13;;
20814;SDS011;10568;48.176;16.316;2023-11-21T05:50:13;4.43;;;1.70;;
20814;SDS011;10568;48.176;16.316;2023-11-21T05:52:41;2.47;;;1.30;;
20814;SDS011;10568;48.176;16.316;2023-11-21T05:55:10;2.80;;;1.00;;
20814;SDS011;10568;48.176;16.316;2023-11-21T05:57:37;3.07;;;1.40;;
20814;SDS011;10568;48.176;16.316;2023-11-21T06:00:04;1.97;;;1.10;;
20814;SDS011;10568;48.176;16.316;2023-11-21T06:02:36;6.70;;;1.23;;
20814;SDS011;10568;48.176;16.316;2023-11-21T06:05:03;2.80;;;1.40;;
20814;SDS011;10568;48.176;16.316;2023-11-21T06:07:30;2.80;;;1.10;;
20814;SDS011;10568;48.176;16.316;2023-11-21T06:09:55;3.60;;;1.30;;
20814;SDS011;10568;48.176;16.316;2023-11-21T06:12:22;4.00;;;1.13;;
20814;SDS011;10568;48.176;16.316;2023-11-21T06:14:47;2.23;;;1.17;;
20814;SDS011;10568;48.176;16.316;2023-11-21T06:17:13;4.13;;;1.50;;
20814;SDS011;10568;48.176;16.316;2023-11-21T06:19:40;4.33;;;1.30;;
20814;SDS011;10568;48.176;16.316;2023-11-21T06:22:05;1.20;;;1.10;;
20814;SDS011;10568;48.176;16.316;2023-11-21T06:24:31;2.50;;;1.20;;
20814;SDS011;10568;48.176;16.316;2023-11-21T06:26:57;1.83;;;1.20;;
20814;SDS011;10568;48.176;16.316;2023-11-21T06:29:23;4.73;;;1.40;;
20814;SDS011;10568;48.176;16.316;2023-11-21T06:31:49;3.60;;;1.17;;
20814;SDS011;10568;48.176;16.316;2023-11-21T06:34:15;2.47;;;1.20;;
20814;SDS011;10568;48.176;16.316;2023-11-21T06:36:41;1.83;;;1.20;;
20814;SDS011;10568;48.176;16.316;2023-11-21T06:39:06;4.27;;;1.67;;
20814;SDS011;10568;48.176;16.316;2023-11-21T06:41:34;3.87;;;1.17;;
20814;SDS011;10568;48.176;16.316;2023-11-21T06:44:03;2.20;;;1.07;;
20814;SDS011;10568;48.176;16.316;2023-11-21T06:46:31;1.37;;;1.00;;
20814;SDS011;10568;48.176;16.316;2023-11-21T06:48:57;2.40;;;1.23;;
20814;SDS011;10568;48.176;16.316;2023-11-21T06:51:23;2.30;;;1.40;;
20814;SDS011;10568;48.176;16.316;2023-11-21T06:53:48;3.87;;;1.10;;
20814;SDS011;10568;48.176;16.316;2023-11-21T06:56:15;1.80;;;1.20;;
20814;SDS011;10568;48.176;16.316;2023-11-21T06:58:41;3.13;;;1.30;;
20814;SDS011;10568;48.176;16.316;2023-11-21T07:01:07;1.80;;;1.17;;
20814;SDS011;10568;48.176;16.316;2023-11-21T07:03:33;3.07;;;1.43;;
20814;SDS011;10568;48.176;16.316;2023-11-21T07:05:59;3.03;;;1.10;;
20814;SDS011;10568;48.176;16.316;2023-11-21T07:08:24;3.33;;;1.37;;
20814;SDS011;10568;48.176;16.316;2023-11-21T07:10:50;2.97;;;1.30;;
20814;SDS011;10568;48.176;16.316;2023-11-21T07:13:16;5.50;;;1.40;;
20814;SDS011;10568;48.176;16.316;2023-11-21T07:15:42;5.57;;;1.30;;
20814;SDS011;10568;48.176;16.316;2023-11-21T07:18:08;2.23;;;1.27;;
20814;SDS011;10568;48.176;16.316;2023-11-21T07:20:34;2.23;;;1.20;;
20814;SDS011;10568;48.176;16.316;2023-11-21T07:23:00;2.03;;;0.90;;
20814;SDS011;10568;48.176;16.316;2023-11-21T07:25:26;4.83;;;1.03;;
20814;SDS011;10568;48.176;16.316;2023-11-21T07:27:52;1.87;;;1.00;;
20814;SDS011;10568;48.176;16.316;2023-11-21T07:30:20;2.47;;;1.47;;
20814;SDS011;10568;48.176;16.316;2023-11-21T07:32:47;2.83;;;0.93;;
20814;SDS011;10568;48.176;16.316;2023-11-21T07:35:13;3.57;;;1.30;;
20814;SDS011;10568;48.176;16.316;2023-11-21T07:37:39;3.07;;;1.30;;
20814;SDS011;10568;48.176;16.316;2023-11-21T07:40:05;4.57;;;1.00;;
20814;SDS011;10568;48.176;16.316;2023-11-21T07:42:34;2.50;;;1.17;;
20814;SDS011;10568;48.176;16.316;2023-11-21T07:44:59;1.50;;;1.00;;
20814;SDS011;10568;48.176;16.316;2023-11-21T07:47:25;4.23;;;1.20;;
20814;SDS011;10568;48.176;16.316;2023-11-21T07:49:52;1.13;;;1.00;;
20814;SDS011;10568;48.176;16.316;2023-11-21T07:52:20;3.70;;;1.30;;
20814;SDS011;10568;48.176;16.316;2023-11-21T07:54:47;4.30;;;1.57;;
20814;SDS011;10568;48.176;16.316;2023-11-21T07:57:13;3.40;;;1.20;;
20814;SDS011;10568;48.176;16.316;2023-11-21T07:59:41;1.97;;;1.20;;
20814;SDS011;10568;48.176;16.316;2023-11-21T08:02:07;4.93;;;1.63;;
20814;SDS011;10568;48.176;16.316;2023-11-21T08:04:33;4.10;;;1.20;;
20814;SDS011;10568;48.176;16.316;2023-11-21T08:07:00;2.40;;;1.20;;
20814;SDS011;10568;48.176;16.316;2023-11-21T08:09:27;3.10;;;1.40;;
20814;SDS011;10568;48.176;16.316;2023-11-21T08:11:53;4.57;;;1.40;;
20814;SDS011;10568;48.176;16.316;2023-11-21T08:14:18;3.77;;;1.77;;
20814;SDS011;10568;48.176;16.316;2023-11-21T08:16:45;3.07;;;1.70;;
20814;SDS011;10568;48.176;16.316;2023-11-21T08:19:11;5.63;;;1.60;;
20814;SDS011;10568;48.176;16.316;2023-11-21T08:21:37;5.70;;;1.50;;
20814;SDS011;10568;48.176;16.316;2023-11-21T08:24:04;3.50;;;1.40;;
20814;SDS011;10568;48.176;16.316;2023-11-21T08:26:31;3.27;;;1.57;;
20814;SDS011;10568;48.176;16.316;2023-11-21T08:28:58;2.37;;;1.50;;
20814;SDS011;10568;48.176;16.316;2023-11-21T08:31:25;6.50;;;1.77;;
20814;SDS011;10568;48.176;16.316;2023-11-21T08:33:51;3.43;;;1.57;;
20814;SDS011;10568;48.176;16.316;2023-11-21T08:36:20;8.27;;;1.40;;
20814;SDS011;10568;48.176;16.316;2023-11-21T08:38:49;6.23;;;1.57;;
20814;SDS011;10568;48.176;16.316;2023-11-21T08:41:17;6.33;;;1.47;;
20814;SDS011;10568;48.176;16.316;2023-11-21T08:43:47;1.70;;;0.93;;
20814;SDS011;10568;48.176;16.316;2023-11-21T08:46:16;2.00;;;1.00;;
20814;SDS011;10568;48.176;16.316;2023-11-21T08:48:43;4.97;;;1.40;;
20814;SDS011;10568;48.176;16.316;2023-11-21T08:51:09;2.33;;;1.30;;
20814;SDS011;10568;48.176;16.316;2023-11-21T08:53:37;2.90;;;1.10;;
20814;SDS011;10568;48.176;16.316;2023-11-21T08:56:03;3.03;;;1.60;;
20814;SDS011;10568;48.176;16.316;2023-11-21T08:58:30;3.63;;;1.10;;
20814;SDS011;10568;48.176;16.316;2023-11-21T09:00:57;4.93;;;1.60;;
20814;SDS011;10568;48.176;16.316;2023-11-21T09:03:23;4.17;;;1.53;;
20814;SDS011;10568;48.176;16.316;2023-11-21T09:05:50;1.90;;;1.30;;
20814;SDS011;10568;48.176;16.316;2023-11-21T09:08:16;4.07;;;1.30;;
20814;SDS011;10568;48.176;16.316;2023-11-21T09:10:42;5.10;;;1.43;;
20814;SDS011;10568;48.176;16.316;2023-11-21T09:13:10;3.70;;;1.47;;
20814;SDS011;10568;48.176;16.316;2023-11-21T09:15:39;3.70;;;1.60;;
20814;SDS011;10568;48.176;16.316;2023-11-21T09:18:05;1.60;;;0.80;;
20814;SDS011;10568;48.176;16.316;2023-11-21T09:20:31;2.30;;;1.30;;
20814;SDS011;10568;48.176;16.316;2023-11-21T09:22:57;3.07;;;1.20;;
20814;SDS011;10568;48.176;16.316;2023-11-21T09:25:22;3.53;;;1.20;;
20814;SDS011;10568;48.176;16.316;2023-11-21T09:27:48;1.27;;;0.87;;
20814;SDS011;10568;48.176;16.316;2023-11-21T09:30:14;0.90;;;0.70;;
20814;SDS011;10568;48.176;16.316;2023-11-21T09:32:40;1.87;;;0.90;;
20814;SDS011;10568;48.176;16.316;2023-11-21T09:35:09;2.37;;;0.90;;
20814;SDS011;10568;48.176;16.316;2023-11-21T09:37:35;1.53;;;0.80;;
20814;SDS011;10568;48.176;16.316;2023-11-21T09:40:01;2.77;;;0.90;;
20814;SDS011;10568;48.176;16.316;2023-11-21T09:42:38;1.33;;;0.60;;
20814;SDS011;10568;48.176;16.316;2023-11-21T09:45:27;1.63;;;0.70;;
20814;SDS011;10568;48.176;16.316;2023-11-21T09:47:54;1.57;;;0.53;;
20814;SDS011;10568;48.176;16.316;2023-11-21T09:50:21;2.03;;;0.80;;
20814;SDS011;10568;48.176;16.316;2023-11-21T09:53:09;0.83;;;0.43;;
20814;SDS011;10568;48.176;16.316;2023-11-21T09:55:43;2.23;;;0.97;;
20814;SDS011;10568;48.176;16.316;2023-11-21T09:58:10;1.17;;;0.50;;
20814;SDS011;10568;48.176;16.316;2023-11-21T10:00:43;0.87;;;0.47;;
20814;SDS011;10568;48.176;16.316;2023-11-21T10:03:10;2.77;;;0.80;;
20814;SDS011;10568;48.176;16.316;2023-11-21T10:05:37;1.47;;;0.60;;
20814;SDS011;10568;48.176;16.316;2023-11-21T10:08:09;1.40;;;0.60;;
20814;SDS011;10568;48.176;16.316;2023-11-21T10:10:37;4.87;;;0.60;;
20814;SDS011;10568;48.176;16.316;2023-11-21T10:13:09;0.87;;;0.60;;
20814;SDS011;10568;48.176;16.316;2023-11-21T10:15:37;1.50;;;0.50;;
20814;SDS011;10568;48.176;16.316;2023-11-21T10:18:03;3.13;;;0.60;;
20814;SDS011;10568;48.176;16.316;2023-11-21T10:20:32;3.03;;;1.03;;
20814;SDS011;10568;48.176;16.316;2023-11-21T10:22:59;1.43;;;0.60;;
20814;SDS011;10568;48.176;16.316;2023-11-21T10:25:32;1.87;;;0.57;;
20814;SDS011;10568;48.176;16.316;2023-11-21T10:27:58;2.43;;;0.80;;
20814;SDS011;10568;48.176;16.316;2023-11-21T10:30:32;1.37;;;0.63;;
20814;SDS011;10568;48.176;16.316;2023-11-21T10:33:05;2.03;;;0.70;;
20814;SDS011;10568;48.176;16.316;2023-11-21T10:38:16;0.90;;;0.53;;
20814;SDS011;10568;48.176;16.316;2023-11-21T10:41:00;1.00;;;0.70;;
20814;SDS011;10568;48.176;16.316;2023-11-21T10:43:29;1.00;;;0.60;;
20814;SDS011;10568;48.176;16.316;2023-11-21T10:45:57;3.23;;;1.07;;
20814;SDS011;10568;48.176;16.316;2023-11-21T10:48:27;1.20;;;0.70;;
20814;SDS011;10568;48.176;16.316;2023-11-21T10:50:53;3.13;;;0.70;;
20814;SDS011;10568;48.176;16.316;2023-11-21T10:53:21;1.27;;;0.50;;
20814;SDS011;10568;48.176;16.316;2023-11-21T10:55:48;2.30;;;0.70;;
20814;SDS011;10568;48.176;16.316;2023-11-21T11:01:06;1.57;;;0.60;;
20814;SDS011;10568;48.176;16.316;2023-11-21T11:03:32;1.30;;;0.60;;
20814;SDS011;10568;48.176;16.316;2023-11-21T11:06:03;2.37;;;0.60;;
20814;SDS011;10568;48.176;16.316;2023-11-21T11:08:32;1.13;;;0.60;;
20814;SDS011;10568;48.176;16.316;2023-11-21T11:11:00;4.13;;;0.60;;
20814;SDS011;10568;48.176;16.316;2023-11-21T11:13:26;1.47;;;0.73;;
20814;SDS011;10568;48.176;16.316;2023-11-21T11:15:56;1.10;;;0.53;;
20814;SDS011;10568;48.176;16.316;2023-11-21T11:18:28;1.10;;;0.50;;
20814;SDS011;10568;48.176;16.316;2023-11-21T11:21:18;1.53;;;0.80;;
20814;SDS011;10568;48.176;16.316;2023-11-21T11:26:56;1.87;;;0.70;;
20814;SDS011;10568;48.176;16.316;2023-11-21T11:29:31;1.27;;;0.50;;
20814;SDS011;10568;48.176;16.316;2023-11-21T11:32:08;1.63;;;0.70;;
20814;SDS011;10568;48.176;16.316;2023-11-21T11:35:01;1.80;;;0.50;;
20814;SDS011;10568;48.176;16.316;2023-11-21T11:37:34;1.70;;;0.50;;
20814;SDS011;10568;48.176;16.316;2023-11-21T11:39:59;0.63;;;0.40;;
20814;SDS011;10568;48.176;16.316;2023-11-21T11:42:25;1.63;;;0.53;;
20814;SDS011;10568;48.176;16.316;2023-11-21T11:48:16;0.67;;;0.50;;
20814;SDS011;10568;48.176;16.316;2023-11-21T11:51:00;1.87;;;0.50;;
20814;SDS011;10568;48.176;16.316;2023-11-21T11:53:46;1.40;;;0.43;;
20814;SDS011;10568;48.176;16.316;2023-11-21T11:59:09;0.70;;;0.53;;
20814;SDS011;10568;48.176;16.316;2023-11-21T12:01:35;0.80;;;0.60;;
20814;SDS011;10568;48.176;16.316;2023-11-21T12:06:40;1.27;;;0.60;;
20814;SDS011;10568;48.176;16.316;2023-11-21T12:09:07;2.50;;;0.80;;
20814;SDS011;10568;48.176;16.316;2023-11-21T12:11:50;1.70;;;0.40;;
20814;SDS011;10568;48.176;16.316;2023-11-21T12:14:17;0.63;;;0.53;;
20814;SDS011;10568;48.176;16.316;2023-11-21T12:16:43;1.87;;;0.80;;
20814;SDS011;10568;48.176;16.316;2023-11-21T12:19:10;1.37;;;0.63;;
20814;SDS011;10568;48.176;16.316;2023-11-21T12:21:36;2.13;;;0.50;;
20814;SDS011;10568;48.176;16.316;2023-11-21T12:24:03;2.13;;;0.50;;
20814;SDS011;10568;48.176;16.316;2023-11-21T12:26:29;1.23;;;0.60;;
20814;SDS011;10568;48.176;16.316;2023-11-21T12:28:55;1.00;;;0.50;;
20814;SDS011;10568;48.176;16.316;2023-11-21T12:31:21;3.17;;;0.70;;
20814;SDS011;10568;48.176;16.316;2023-11-21T12:33:48;2.17;;;0.73;;
20814;SDS011;10568;48.176;16.316;2023-11-21T12:36:15;1.97;;;0.70;;
20814;SDS011;10568;48.176;16.316;2023-11-21T12:38:42;1.93;;;0.90;;
20814;SDS011;10568;48.176;16.316;2023-11-21T12:41:09;1.00;;;0.60;;
20814;SDS011;10568;48.176;16.316;2023-11-21T12:43:37;1.50;;;0.80;;
20814;SDS011;10568;48.176;16.316;2023-11-21T12:46:07;1.07;;;0.70;;
20814;SDS011;10568;48.176;16.316;2023-11-21T12:48:38;0.80;;;0.50;;
20814;SDS011;10568;48.176;16.316;2023-11-21T12:51:13;0.70;;;0.60;;
20814;SDS011;10568;48.176;16.316;2023-11-21T12:53:44;2.77;;;0.70;;
20814;SDS011;10568;48.176;16.316;2023-11-21T12:56:10;2.13;;;1.07;;
20814;SDS011;10568;48.176;16.316;2023-11-21T12:58:37;1.57;;;0.77;;
20814;SDS011;10568;48.176;16.316;2023-11-21T13:01:07;1.57;;;0.60;;
20814;SDS011;10568;48.176;16.316;2023-11-21T13:03:43;0.70;;;0.60;;
20814;SDS011;10568;48.176;16.316;2023-11-21T13:06:14;2.07;;;0.87;;
20814;SDS011;10568;48.176;16.316;2023-11-21T13:08:41;0.93;;;0.80;;
20814;SDS011;10568;48.176;16.316;2023-11-21T13:11:09;1.90;;;0.80;;
20814;SDS011;10568;48.176;16.316;2023-11-21T13:13:42;2.00;;;0.80;;
20814;SDS011;10568;48.176;16.316;2023-11-21T13:16:09;1.30;;;0.80;;
20814;SDS011;10568;48.176;16.316;2023-11-21T13:18:35;1.00;;;0.40;;
20814;SDS011;10568;48.176;16.316;2023-11-21T13:21:02;2.70;;;0.73;;
20814;SDS011;10568;48.176;16.316;2023-11-21T13:23:35;1.63;;;0.80;;
20814;SDS011;10568;48.176;16.316;2023-11-21T13:26:03;1.40;;;0.70;;
20814;SDS011;10568;48.176;16.316;2023-11-21T13:28:30;1.80;;;0.90;;
20814;SDS011;10568;48.176;16.316;2023-11-21T13:30:59;2.27;;;1.00;;
20814;SDS011;10568;48.176;16.316;2023-11-21T13:33:35;0.97;;;0.60;;
20814;SDS011;10568;48.176;16.316;2023-11-21T13:36:03;2.63;;;0.53;;
20814;SDS011;10568;48.176;16.316;2023-11-21T13:38:33;1.80;;;0.93;;
20814;SDS011;10568;48.176;16.316;2023-11-21T13:41:00;1.60;;;1.10;;
20814;SDS011;10568;48.176;16.316;2023-11-21T13:43:26;3.00;;;0.80;;
20814;SDS011;10568;48.176;16.316;2023-11-21T13:45:54;1.57;;;0.80;;
20814;SDS011;10568;48.176;16.316;2023-11-21T13:48:33;2.73;;;1.03;;
20814;SDS011;10568;48.176;16.316;2023-11-21T13:51:16;1.53;;;0.90;;
20814;SDS011;10568;48.176;16.316;2023-11-21T13:53:46;2.53;;;0.87;;
20814;SDS011;10568;48.176;16.316;2023-11-21T13:56:15;3.73;;;0.90;;
20814;SDS011;10568;48.176;16.316;2023-11-21T13:58:53;1.00;;;0.60;;
20814;SDS011;10568;48.176;16.316;2023-11-21T14:01:21;0.87;;;0.73;;
20814;SDS011;10568;48.176;16.316;2023-11-21T14:04:08;1.17;;;0.77;;
20814;SDS011;10568;48.176;16.316;2023-11-21T14:06:46;1.63;;;0.97;;
20814;SDS011;10568;48.176;16.316;2023-11-21T14:09:14;1.47;;;0.77;;
20814;SDS011;10568;48.176;16.316;2023-11-21T14:11:57;2.37;;;1.00;;
20814;SDS011;10568;48.176;16.316;2023-11-21T14:14:26;1.30;;;0.90;;
20814;SDS011;10568;48.176;16.316;2023-11-21T14:16:56;1.13;;;0.90;;
20814;SDS011;10568;48.176;16.316;2023-11-21T14:19:26;1.60;;;1.13;;
20814;SDS011;10568;48.176;16.316;2023-11-21T14:21:56;1.23;;;0.93;;
20814;SDS011;10568;48.176;16.316;2023-11-21T14:24:22;2.37;;;1.13;;
20814;SDS011;10568;48.176;16.316;2023-11-21T14:26:49;1.93;;;1.20;;
20814;SDS011;10568;48.176;16.316;2023-11-21T14:29:16;1.70;;;0.93;;
20814;SDS011;10568;48.176;16.316;2023-11-21T14:31:45;1.60;;;0.90;;
20814;SDS011;10568;48.176;16.316;2023-11-21T14:34:11;2.83;;;1.40;;
20814;SDS011;10568;48.176;16.316;2023-11-21T14:36:38;3.00;;;1.37;;
20814;SDS011;10568;48.176;16.316;2023-11-21T14:39:05;1.67;;;1.13;;
20814;SDS011;10568;48.176;16.316;2023-11-21T14:41:57;1.93;;;1.17;;
20814;SDS011;10568;48.176;16.316;2023-11-21T14:44:24;1.50;;;1.23;;
20814;SDS011;10568;48.176;16.316;2023-11-21T14:46:51;2.43;;;1.00;;
20814;SDS011;10568;48.176;16.316;2023-11-21T14:49:20;1.53;;;1.00;;
20814;SDS011;10568;48.176;16.316;2023-11-21T14:51:47;1.83;;;1.23;;
20814;SDS011;10568;48.176;16.316;2023-11-21T14:54:20;1.63;;;1.03;;